createdAt,value
2018-05-12T00:00:55.747Z,7.45
2018-05-12T00:03:23.933Z,7.40
2018-05-12T00:05:52.254Z,7.28
2018-05-12T00:08:20.525Z,7.10
2018-05-12T00:10:48.719Z,7.72
2018-05-12T00:13:16.916Z,7.45
2018-05-12T00:15:45.223Z,7.32
2018-05-12T00:18:13.515Z,7.70
2018-05-12T00:20:41.914Z,8.15
2018-05-12T00:23:10.108Z,7.32
2018-05-12T00:25:38.220Z,7.62
2018-05-12T00:28:06.501Z,6.95
2018-05-12T00:30:34.697Z,7.80
2018-05-12T00:33:02.891Z,6.90
2018-05-12T00:35:31.065Z,6.50
2018-05-12T00:37:59.276Z,7.47
2018-05-12T00:40:27.367Z,7.28
2018-05-12T00:42:55.813Z,7.60
2018-05-12T00:45:24.150Z,6.35
2018-05-12T00:47:52.465Z,7.20
2018-05-12T00:50:20.861Z,6.45
2018-05-12T00:52:49.064Z,6.78
2018-05-12T00:55:17.345Z,7.32
2018-05-12T00:57:45.649Z,6.47
2018-05-12T01:00:13.730Z,6.30
2018-05-12T01:02:42.238Z,7.40
2018-05-12T01:05:10.490Z,6.87
2018-05-12T01:07:38.824Z,6.50
2018-05-12T01:10:06.921Z,7.50
2018-05-12T01:12:35.124Z,6.62
2018-05-12T01:15:03.203Z,7.05
2018-05-12T01:17:31.402Z,7.10
2018-05-12T01:19:59.585Z,7.37
2018-05-12T01:22:27.785Z,7.70
2018-05-12T01:24:55.887Z,6.97
2018-05-12T01:27:24.092Z,7.62
2018-05-12T01:29:52.172Z,6.68
2018-05-12T01:32:20.372Z,7.60
2018-05-12T01:34:48.653Z,7.93
2018-05-12T01:37:16.966Z,6.78
2018-05-12T01:39:45.267Z,7.78
2018-05-12T01:42:13.562Z,7.60
2018-05-12T01:44:41.754Z,6.53
2018-05-12T01:47:10.078Z,7.47
2018-05-12T01:49:38.171Z,7.32
2018-05-12T01:52:06.335Z,7.00
2018-05-12T01:54:34.540Z,6.97
2018-05-12T01:57:02.725Z,6.90
2018-05-12T01:59:31.224Z,7.75
2018-05-12T02:01:59.316Z,6.85
2018-05-12T02:04:27.619Z,7.43
2018-05-12T02:06:56.009Z,7.12
2018-05-12T02:09:24.200Z,7.00
2018-05-12T02:11:52.309Z,6.95
2018-05-12T02:14:20.609Z,7.10
2018-05-12T02:16:48.798Z,6.40
2018-05-12T02:19:17.088Z,6.50
2018-05-12T02:21:45.391Z,6.60
2018-05-12T02:24:13.883Z,6.20
2018-05-12T02:26:42.177Z,6.97
2018-05-12T02:29:10.323Z,7.43
2018-05-12T02:31:38.475Z,7.60
2018-05-12T02:34:06.879Z,7.28
2018-05-12T02:36:35.171Z,6.62
2018-05-12T02:39:03.346Z,6.40
2018-05-12T02:41:31.443Z,6.82
2018-05-12T02:43:59.760Z,6.60
2018-05-12T02:46:28.145Z,6.70
2018-05-12T02:48:56.345Z,6.40
2018-05-12T02:51:24.522Z,5.80
2018-05-12T02:53:52.718Z,5.87
2018-05-12T02:56:21.025Z,7.20
2018-05-12T02:58:49.307Z,6.62
2018-05-12T03:01:17.408Z,7.65
2018-05-12T03:03:45.705Z,6.30
2018-05-12T03:06:14.015Z,6.97
2018-05-12T03:08:42.318Z,6.40
2018-05-12T03:11:10.393Z,6.18
2018-05-12T03:13:38.492Z,6.43
2018-05-12T03:16:06.681Z,7.82
2018-05-12T03:18:34.871Z,6.60
2018-05-12T03:21:02.983Z,6.32
2018-05-12T03:23:31.162Z,6.78
2018-05-12T03:25:59.348Z,6.62
2018-05-12T03:28:27.553Z,7.03
2018-05-12T03:30:55.646Z,6.70
2018-05-12T03:33:23.831Z,7.80
2018-05-12T03:35:52.144Z,6.70
2018-05-12T03:38:20.331Z,7.40
2018-05-12T03:40:48.627Z,7.05
2018-05-12T03:43:17.026Z,7.82
2018-05-12T03:45:45.427Z,7.35
2018-05-12T03:48:13.843Z,7.12
2018-05-12T03:50:42.316Z,6.65
2018-05-12T03:53:10.978Z,6.85
2018-05-12T03:55:39.136Z,7.35
2018-05-12T03:58:07.525Z,7.03
2018-05-12T04:00:35.709Z,7.62
2018-05-12T04:03:03.803Z,6.37
2018-05-12T04:05:31.997Z,6.45
2018-05-12T04:08:00.088Z,7.50
2018-05-12T04:10:28.284Z,6.85
2018-05-12T04:12:56.483Z,6.60
2018-05-12T04:15:24.803Z,6.35
2018-05-12T04:17:53.063Z,7.40
2018-05-12T04:20:21.363Z,8.02
2018-05-12T04:22:49.664Z,6.75
2018-05-12T04:25:17.966Z,6.75
2018-05-12T04:27:46.067Z,6.15
2018-05-12T04:30:14.460Z,6.72
2018-05-12T04:32:42.749Z,6.93
2018-05-12T04:35:10.805Z,6.80
2018-05-12T04:37:38.936Z,7.10
2018-05-12T04:40:07.127Z,7.00
2018-05-12T04:42:35.218Z,7.18
2018-05-12T04:45:03.426Z,7.25
2018-05-12T04:47:31.504Z,6.47
2018-05-12T04:49:59.713Z,7.30
2018-05-12T04:52:28.006Z,8.18
2018-05-12T04:54:56.505Z,7.87
2018-05-12T04:57:24.799Z,7.25
2018-05-12T04:59:53.106Z,7.55
2018-05-12T05:02:21.389Z,6.80
2018-05-12T05:04:49.673Z,7.30
2018-05-12T05:07:17.978Z,6.85
2018-05-12T05:09:46.276Z,7.15
2018-05-12T05:12:14.468Z,7.70
2018-05-12T05:14:42.680Z,7.60
2018-05-12T05:17:10.687Z,7.72
2018-05-12T05:19:38.963Z,7.57
2018-05-12T05:22:07.166Z,7.72
2018-05-12T05:24:35.443Z,6.70
2018-05-12T05:27:03.643Z,6.28
2018-05-12T05:29:31.843Z,6.90
2018-05-12T05:31:59.938Z,6.45
2018-05-12T05:34:28.117Z,7.10
2018-05-12T05:36:56.418Z,6.80
2018-05-12T05:39:24.720Z,6.30
2018-05-12T05:41:53.012Z,7.43
2018-05-12T05:44:21.308Z,6.55
2018-05-12T05:46:49.711Z,6.57
2018-05-12T05:49:18.113Z,6.20
2018-05-12T05:51:46.403Z,6.82
2018-05-12T05:54:14.591Z,6.50
2018-05-12T05:56:42.783Z,7.00
2018-05-12T05:59:10.876Z,6.43
2018-05-12T06:01:39.080Z,6.40
2018-05-12T06:04:07.372Z,6.00
2018-05-12T06:06:35.783Z,6.75
2018-05-12T06:09:03.967Z,5.82
2018-05-12T06:11:32.058Z,6.25
2018-05-12T06:14:00.149Z,5.07
2018-05-12T06:16:28.455Z,6.05
2018-05-12T06:18:56.646Z,6.05
2018-05-12T06:21:25.052Z,5.53
2018-05-12T06:23:53.235Z,5.82
2018-05-12T06:26:21.532Z,5.30
2018-05-12T06:28:49.726Z,4.70
2018-05-12T06:31:17.820Z,5.60
2018-05-12T06:33:46.135Z,5.55
2018-05-12T06:36:14.317Z,4.80
2018-05-12T06:38:42.803Z,5.30
2018-05-12T06:41:10.908Z,5.40
2018-05-12T06:43:39.430Z,5.07
2018-05-12T06:46:07.699Z,5.07
2018-05-12T06:48:35.990Z,5.90
2018-05-12T06:51:04.193Z,5.20
2018-05-12T06:53:32.403Z,6.15
2018-05-12T06:56:00.800Z,6.60
2018-05-12T06:58:28.976Z,5.50
2018-05-12T07:00:57.285Z,5.53
2018-05-12T07:03:25.683Z,4.82
2018-05-12T07:05:54.195Z,5.50
2018-05-12T07:08:22.487Z,5.07
2018-05-12T07:10:50.897Z,5.40
2018-05-12T07:13:19.384Z,5.45
2018-05-12T07:15:49.146Z,5.50
2018-05-12T07:18:17.132Z,5.75
2018-05-12T07:20:45.293Z,4.90
2018-05-12T07:23:13.483Z,5.80
2018-05-12T07:25:41.572Z,5.63
2018-05-12T07:28:09.984Z,5.00
2018-05-12T07:30:38.304Z,6.17
2018-05-12T07:33:06.564Z,5.70
2018-05-12T07:35:34.757Z,5.27
2018-05-12T07:38:02.953Z,5.90
2018-05-12T07:40:31.149Z,6.37
2018-05-12T07:42:59.660Z,6.47
2018-05-12T07:45:27.991Z,6.17
2018-05-12T07:47:56.532Z,5.27
2018-05-12T07:50:24.853Z,5.73
2018-05-12T07:52:53.244Z,5.87
2018-05-12T07:55:21.533Z,5.43
2018-05-12T07:57:49.741Z,6.20
2018-05-12T08:00:17.828Z,5.83
2018-05-12T08:02:46.028Z,5.93
2018-05-12T08:05:14.342Z,5.67
2018-05-12T08:07:42.742Z,5.77
2018-05-12T08:10:11.021Z,5.40
2018-05-12T08:12:39.323Z,4.80
2018-05-12T08:15:07.708Z,4.90
2018-05-12T08:17:35.917Z,4.93
2018-05-12T08:20:04.100Z,5.43
2018-05-12T08:22:32.416Z,5.70
2018-05-12T08:25:00.687Z,5.70
2018-05-12T08:27:28.894Z,6.10
2018-05-12T08:29:57.203Z,5.63
2018-05-12T08:32:25.699Z,6.37
2018-05-12T08:34:54.224Z,6.60
2018-05-12T08:37:22.442Z,6.60
2018-05-12T08:39:51.493Z,6.50
2018-05-12T08:42:19.703Z,6.77
2018-05-12T08:44:48.095Z,7.50
2018-05-12T08:47:16.179Z,7.20
2018-05-12T08:49:44.374Z,7.70
2018-05-12T08:52:12.470Z,7.30
2018-05-12T08:54:40.669Z,7.30
2018-05-12T08:57:08.748Z,7.20
2018-05-12T08:59:36.947Z,7.40
2018-05-12T09:02:05.052Z,7.60
2018-05-12T09:04:33.452Z,7.33
2018-05-12T09:07:01.850Z,7.50
2018-05-12T09:09:30.344Z,8.40
2018-05-12T09:11:58.650Z,7.93
2018-05-12T09:14:27.032Z,7.70
2018-05-12T09:16:55.445Z,7.77
2018-05-12T09:19:23.841Z,9.03
2018-05-12T09:21:52.141Z,7.00
2018-05-12T09:24:20.432Z,7.53
2018-05-12T09:26:48.611Z,7.87
2018-05-12T09:29:16.815Z,7.77
2018-05-12T09:31:45.022Z,7.60
2018-05-12T09:34:13.199Z,8.00
2018-05-12T09:36:41.605Z,8.10
2018-05-12T09:39:09.793Z,8.00
2018-05-12T09:41:38.028Z,7.67
2018-05-12T09:44:06.503Z,7.83
2018-05-12T09:46:34.905Z,7.30
2018-05-12T09:49:03.400Z,7.90
2018-05-12T09:51:31.838Z,8.03
2018-05-12T09:54:00.193Z,7.70
2018-05-12T09:56:28.418Z,6.80
2018-05-12T09:58:56.826Z,7.90
2018-05-12T10:01:26.077Z,7.73
2018-05-12T10:03:54.524Z,7.80
2018-05-12T10:06:23.140Z,7.97
2018-05-12T10:08:51.418Z,7.10
2018-05-12T10:11:19.823Z,7.23
2018-05-12T10:13:48.333Z,8.17
2018-05-12T10:16:16.696Z,7.40
2018-05-12T10:18:45.100Z,7.27
2018-05-12T10:21:13.300Z,6.90
2018-05-12T10:23:41.596Z,7.63
2018-05-12T10:26:09.799Z,8.10
2018-05-12T10:28:37.886Z,7.40
2018-05-12T10:31:06.078Z,7.00
2018-05-12T10:33:34.412Z,7.10
2018-05-12T10:36:02.473Z,8.13
2018-05-12T10:38:32.092Z,7.03
2018-05-12T10:41:00.397Z,5.70
2018-05-12T10:43:28.482Z,6.90
2018-05-12T10:45:56.881Z,7.40
2018-05-12T10:48:25.073Z,7.37
2018-05-12T10:50:53.258Z,5.70
2018-05-12T10:53:21.562Z,6.57
2018-05-12T10:55:49.757Z,6.23
2018-05-12T10:58:17.848Z,7.33
2018-05-12T11:00:46.043Z,6.80
2018-05-12T11:03:14.444Z,5.40
2018-05-12T11:05:42.657Z,4.93
2018-05-12T11:08:11.047Z,5.70
2018-05-12T11:10:39.535Z,5.50
2018-05-12T11:13:07.570Z,6.57
2018-05-12T11:15:35.935Z,6.10
2018-05-12T11:18:04.334Z,5.43
2018-05-12T11:20:32.636Z,7.17
2018-05-12T11:23:01.120Z,5.97
2018-05-12T11:25:29.532Z,5.80
2018-05-12T11:27:57.945Z,6.00
2018-05-12T11:30:26.336Z,5.80
2018-05-12T11:32:54.610Z,5.40
2018-05-12T11:35:22.921Z,5.83
2018-05-12T11:37:51.113Z,5.67
2018-05-12T11:40:19.297Z,5.40
2018-05-12T11:42:47.488Z,5.73
2018-05-12T11:45:15.704Z,6.10
2018-05-12T11:47:44.012Z,6.30
2018-05-12T11:50:12.379Z,6.80
2018-05-12T11:52:40.456Z,6.90
2018-05-12T11:55:08.758Z,5.97
2018-05-12T11:57:37.076Z,6.50
2018-05-12T12:00:05.480Z,6.50
2018-05-12T12:02:33.793Z,6.50
2018-05-12T12:05:02.151Z,6.53
2018-05-12T12:07:31.601Z,7.17
2018-05-12T12:09:59.885Z,7.77
2018-05-12T12:12:28.186Z,6.27
2018-05-12T12:14:56.494Z,6.60
2018-05-12T12:17:24.860Z,7.00
2018-05-12T12:19:53.085Z,6.53
2018-05-12T12:22:21.276Z,6.30
2018-05-12T12:24:49.788Z,9.00
2018-05-12T12:27:18.065Z,7.93
2018-05-12T12:29:46.178Z,9.03
2018-05-12T12:32:14.373Z,7.57
2018-05-12T12:34:43.017Z,6.80
2018-05-12T12:37:11.268Z,7.73
2018-05-12T12:39:39.548Z,8.77
2018-05-12T12:42:07.759Z,6.60
2018-05-12T12:44:36.827Z,7.43
2018-05-12T12:47:05.150Z,6.30
2018-05-12T12:49:33.355Z,6.60
2018-05-12T12:52:01.951Z,5.60
2018-05-12T12:54:30.239Z,6.00
2018-05-12T12:56:58.448Z,7.00
2018-05-12T12:59:27.559Z,6.00
2018-05-12T13:01:55.650Z,6.47
2018-05-12T13:04:23.731Z,5.80
2018-05-12T13:06:51.922Z,7.40
2018-05-12T13:09:20.059Z,7.33
2018-05-12T13:11:48.559Z,7.33
2018-05-12T13:14:16.933Z,6.60
2018-05-12T13:16:45.430Z,7.77
2018-05-12T13:19:14.026Z,6.40
2018-05-12T13:21:42.526Z,6.20
2018-05-12T13:24:10.726Z,5.80
2018-05-12T13:26:38.908Z,6.40
2018-05-12T13:29:06.903Z,6.63
2018-05-12T13:31:35.112Z,6.20
2018-05-12T13:34:03.596Z,6.53
2018-05-12T13:36:31.905Z,6.87
2018-05-12T13:39:00.222Z,7.53
2018-05-12T13:41:28.841Z,7.93
2018-05-12T13:43:57.448Z,6.67
2018-05-12T13:46:25.742Z,7.33
2018-05-12T13:48:53.985Z,8.00
2018-05-12T13:51:22.449Z,8.33
2018-05-12T13:53:50.792Z,7.70
2018-05-12T13:56:19.110Z,8.47
2018-05-12T13:58:47.298Z,8.77
2018-05-12T14:01:15.485Z,8.60
2018-05-12T14:03:43.683Z,9.70
2018-05-12T14:06:11.888Z,8.97
2018-05-12T14:08:40.286Z,9.40
2018-05-12T14:11:08.571Z,9.50
2018-05-12T14:13:36.864Z,9.07
2018-05-12T14:16:05.158Z,10.30
2018-05-12T14:18:33.454Z,9.50
2018-05-12T14:21:02.266Z,9.53
2018-05-12T14:23:30.571Z,9.40
2018-05-12T14:25:58.952Z,9.60
2018-05-12T14:28:27.053Z,9.57
2018-05-12T14:30:55.259Z,9.80
2018-05-12T14:33:23.553Z,9.30
2018-05-12T14:35:51.752Z,9.00
2018-05-12T14:38:20.050Z,10.10
2018-05-12T14:40:48.328Z,9.73
2018-05-12T14:43:16.540Z,9.30
2018-05-12T14:45:45.034Z,8.83
2018-05-12T14:48:13.435Z,9.60
2018-05-12T14:50:41.837Z,9.63
2018-05-12T14:53:10.435Z,10.57
2018-05-12T14:55:38.648Z,10.83
2018-05-12T14:58:07.129Z,10.23
2018-05-12T15:00:35.421Z,10.70
2018-05-12T15:03:03.840Z,11.23
2018-05-12T15:05:32.345Z,10.40
2018-05-12T15:08:00.747Z,10.70
2018-05-12T15:10:29.006Z,12.30
2018-05-12T15:12:58.068Z,11.00
2018-05-12T15:15:26.356Z,10.30
2018-05-12T15:17:55.467Z,10.67
2018-05-12T15:20:23.962Z,10.77
2018-05-12T15:22:52.344Z,9.90
2018-05-12T15:25:20.528Z,9.43
2018-05-12T15:27:48.634Z,10.00
2018-05-12T15:30:16.941Z,9.23
2018-05-12T15:32:45.329Z,10.10
2018-05-12T15:35:13.634Z,10.87
2018-05-12T15:37:42.106Z,10.53
2018-05-12T15:40:10.447Z,9.40
2018-05-12T15:42:38.739Z,9.30
2018-05-12T15:45:07.113Z,10.17
2018-05-12T15:47:35.310Z,10.47
2018-05-12T15:50:03.647Z,10.60
2018-05-12T15:52:31.894Z,11.03
2018-05-12T15:55:00.129Z,10.03
2018-05-12T15:57:28.531Z,10.50
2018-05-12T15:59:57.206Z,10.87
2018-05-12T16:02:25.294Z,10.80
2018-05-12T16:04:53.476Z,9.80
2018-05-12T16:07:21.685Z,9.60
2018-05-12T16:09:50.077Z,7.93
2018-05-12T16:12:18.521Z,8.00
2018-05-12T16:14:46.774Z,8.17
2018-05-12T16:17:15.207Z,9.50
2018-05-12T16:19:43.429Z,8.13
2018-05-12T16:22:11.566Z,8.17
2018-05-12T16:24:39.874Z,6.90
2018-05-12T16:27:08.138Z,6.97
2018-05-12T16:29:36.450Z,7.70
2018-05-12T16:32:04.645Z,7.47
2018-05-12T16:34:32.940Z,8.03
2018-05-12T16:37:01.130Z,5.43
2018-05-12T16:39:29.746Z,5.67
2018-05-12T16:41:58.044Z,6.10
2018-05-12T16:44:26.230Z,5.60
2018-05-12T16:46:54.421Z,5.03
2018-05-12T16:49:22.625Z,6.00
2018-05-12T16:51:50.835Z,5.30
2018-05-12T16:54:19.091Z,5.97
2018-05-12T16:56:47.300Z,5.10
2018-05-12T16:59:15.513Z,4.93
2018-05-12T17:01:43.703Z,5.30
2018-05-12T17:04:11.983Z,5.70
2018-05-12T17:06:40.193Z,5.77
2018-05-12T17:09:08.405Z,5.37
2018-05-12T17:11:36.900Z,6.80
2018-05-12T17:14:05.285Z,6.20
2018-05-12T17:16:33.604Z,7.20
2018-05-12T17:19:01.873Z,4.93
2018-05-12T17:21:30.178Z,4.87
2018-05-12T17:23:58.363Z,4.30
2018-05-12T17:26:26.562Z,5.43
2018-05-12T17:28:55.313Z,6.37
2018-05-12T17:31:23.579Z,6.10
2018-05-12T17:33:52.073Z,6.37
2018-05-12T17:36:20.270Z,6.30
2018-05-12T17:38:48.556Z,7.63
2018-05-12T17:41:16.624Z,7.13
2018-05-12T17:43:44.848Z,7.83
2018-05-12T17:59:20.920Z,9.37
2018-05-12T18:01:49.253Z,9.52
2018-05-12T18:04:17.565Z,10.80
2018-05-12T18:06:46.189Z,9.82
2018-05-12T18:09:14.761Z,9.15
2018-05-12T18:11:43.658Z,7.60
2018-05-12T18:14:11.859Z,8.85
2018-05-12T18:16:40.517Z,8.10
2018-05-12T18:19:08.764Z,7.18
2018-05-12T18:21:36.937Z,7.35
2018-05-12T18:24:05.037Z,7.72
2018-05-12T18:26:33.241Z,8.05
2018-05-12T18:29:01.520Z,7.10
2018-05-12T18:31:29.636Z,7.40
2018-05-12T18:33:58.015Z,6.00
2018-05-12T18:36:26.414Z,7.43
2018-05-12T18:38:54.613Z,6.47
2018-05-12T18:41:22.724Z,7.22
2018-05-12T18:43:50.998Z,7.32
2018-05-12T18:46:19.179Z,7.10
2018-05-12T18:48:47.764Z,7.55
2018-05-12T18:51:16.062Z,8.25
2018-05-12T18:53:44.296Z,7.90
2018-05-12T18:56:12.490Z,7.47
2018-05-12T18:58:41.055Z,7.25
2018-05-12T19:01:09.294Z,11.88
2018-05-12T19:03:37.693Z,8.15
2018-05-12T19:06:06.072Z,7.93
2018-05-12T19:08:34.276Z,8.15
2018-05-12T19:11:02.459Z,7.68
2018-05-12T19:13:30.659Z,8.43
2018-05-12T19:15:59.055Z,8.57
2018-05-12T19:18:27.259Z,8.60
2018-05-12T19:20:55.341Z,8.60
2018-05-12T19:23:23.538Z,8.00
2018-05-12T19:25:51.638Z,8.68
2018-05-12T19:28:19.818Z,8.90
2018-05-12T19:30:47.920Z,8.98
2018-05-12T19:33:16.044Z,8.07
2018-05-12T19:35:44.040Z,9.00
2018-05-12T19:38:12.306Z,8.02
2018-05-12T19:40:40.389Z,8.32
2018-05-12T19:43:08.583Z,8.88
2018-05-12T19:45:36.766Z,8.55
2018-05-12T19:48:04.970Z,8.50
2018-05-12T19:50:33.172Z,8.80
2018-05-12T19:53:01.366Z,8.95
2018-05-12T19:55:29.561Z,9.27
2018-05-12T19:57:57.662Z,8.90
2018-05-12T20:00:25.745Z,8.50
2018-05-12T20:02:53.923Z,10.20
2018-05-12T20:05:22.022Z,8.90
2018-05-12T20:07:50.325Z,8.95
2018-05-12T20:10:18.522Z,8.07
2018-05-12T20:12:46.810Z,9.05
2018-05-12T20:15:14.904Z,8.25
2018-05-12T20:17:43.001Z,8.18
2018-05-12T20:20:11.028Z,6.90
2018-05-12T20:22:39.183Z,6.28
2018-05-12T20:25:07.273Z,6.32
2018-05-12T20:27:35.562Z,5.60
2018-05-12T20:30:03.763Z,6.07
2018-05-12T20:32:31.958Z,5.95
2018-05-12T20:35:00.055Z,5.20
2018-05-12T20:37:28.310Z,5.60
2018-05-12T20:39:56.537Z,5.87
2018-05-12T20:42:24.736Z,6.60
2018-05-12T20:44:52.938Z,6.07
2018-05-12T20:47:21.114Z,6.85
2018-05-12T20:49:49.324Z,6.60
2018-05-12T20:52:17.515Z,8.07
2018-05-12T20:54:45.707Z,6.65
2018-05-12T20:57:13.913Z,7.20
2018-05-12T20:59:42.093Z,8.20
2018-05-12T21:02:10.111Z,8.00
2018-05-12T21:04:38.287Z,8.77
2018-05-12T21:07:06.779Z,8.63
2018-05-12T21:09:34.979Z,8.35
2018-05-12T21:12:03.059Z,10.50
2018-05-12T21:14:31.256Z,9.85
2018-05-12T21:16:59.564Z,9.27
2018-05-12T21:19:28.375Z,9.55
2018-05-12T21:21:56.463Z,9.80
2018-05-12T21:24:24.858Z,10.25
2018-05-12T21:26:53.142Z,10.20
2018-05-12T21:29:21.345Z,9.10
2018-05-12T21:31:49.447Z,8.95
2018-05-12T21:34:17.639Z,8.48
2018-05-12T21:36:45.620Z,9.18
2018-05-12T21:39:13.843Z,10.23
2018-05-12T21:41:42.215Z,9.73
2018-05-12T21:44:10.248Z,9.15
2018-05-12T21:46:38.300Z,9.23
2018-05-12T21:49:06.485Z,11.80
2018-05-12T21:51:34.694Z,11.20
2018-05-12T21:54:02.884Z,9.93
2018-05-12T21:56:31.071Z,8.40
2018-05-12T21:58:59.322Z,8.35
2018-05-12T22:01:27.567Z,8.63
2018-05-12T22:03:55.872Z,7.72
2018-05-12T22:06:24.269Z,7.32
2018-05-12T22:08:52.468Z,6.10
2018-05-12T22:11:20.849Z,6.85
2018-05-12T22:13:49.066Z,7.22
2018-05-12T22:16:17.339Z,8.23
2018-05-12T22:18:45.546Z,8.32
2018-05-12T22:21:13.645Z,8.43
2018-05-12T22:23:41.820Z,8.30
2018-05-12T22:26:09.848Z,8.15
2018-05-12T22:28:37.906Z,8.90
2018-05-12T22:31:05.991Z,8.98
2018-05-12T22:33:34.200Z,9.77
2018-05-12T22:36:02.385Z,8.45
2018-05-12T22:38:30.695Z,7.82
2018-05-12T22:40:59.088Z,8.80
2018-05-12T22:43:27.390Z,7.72
2018-05-12T22:45:55.579Z,7.75
2018-05-12T22:48:23.874Z,8.05
2018-05-12T22:50:52.265Z,8.20
2018-05-12T22:53:20.579Z,8.23
2018-05-12T22:55:48.778Z,8.27
2018-05-12T22:58:16.857Z,8.13
2018-05-12T23:00:45.060Z,8.40
2018-05-12T23:03:13.146Z,10.85
2018-05-12T23:05:41.339Z,9.48
2018-05-12T23:08:09.539Z,9.02
2018-05-12T23:10:37.573Z,8.85
2018-05-12T23:13:05.622Z,8.77
2018-05-12T23:15:33.908Z,8.30
2018-05-12T23:18:02.214Z,8.23
2018-05-12T23:20:30.514Z,8.80
2018-05-12T23:22:58.908Z,8.68
2018-05-12T23:25:27.193Z,9.15
2018-05-12T23:27:55.496Z,8.75
2018-05-12T23:30:23.702Z,8.27
2018-05-12T23:32:51.784Z,8.52
2018-05-12T23:35:19.982Z,9.18
2018-05-12T23:37:48.070Z,8.55
2018-05-12T23:40:16.261Z,8.20
2018-05-12T23:42:44.363Z,8.65
2018-05-12T23:45:12.545Z,9.20
2018-05-12T23:47:40.751Z,7.78
2018-05-12T23:50:08.934Z,7.95
2018-05-12T23:52:36.960Z,8.80
2018-05-12T23:55:05.082Z,8.32
2018-05-12T23:57:33.423Z,9.20
